Time;durP1;ratioP1;P1;durP2;ratioP2;P2;SDS_P1;SDS_P2;PMS_P1;PMS_P2;Temp;Humidity;BMP_temperature;BMP_pressure;BME280_temperature;BME280_humidity;BME280_pressure;Samples;Min_cycle;Max_cycle;Signal;HPM_P1;HPM_P2
2021/09/26 00:00:12;;;;;;;10.45;7.95;;;18.20;76.20;;;;;;5016677;28;20050;-83
2021/09/26 00:02:40;;;;;;;11.98;7.53;;;18.20;76.20;;;;;;5016052;28;20480;-83
2021/09/26 00:05:10;;;;;;;13.23;9.00;;;18.20;76.30;;;;;;5011825;28;20053;-83
2021/09/26 00:07:37;;;;;;;16.75;9.93;;;18.20;76.30;;;;;;5026677;28;20498;-83
2021/09/26 00:10:06;;;;;;;11.63;8.45;;;18.20;76.30;;;;;;5013711;28;20061;-83
2021/09/26 00:12:33;;;;;;;14.25;8.68;;;18.20;76.30;;;;;;5013362;28;20058;-83
2021/09/26 00:15:00;;;;;;;11.43;8.82;;;18.20;76.40;;;;;;5013404;28;20046;-83
2021/09/26 00:17:27;;;;;;;11.95;9.20;;;18.20;76.40;;;;;;5013501;28;20449;-83
2021/09/26 00:19:54;;;;;;;12.38;9.88;;;18.20;76.40;;;;;;5010983;28;20104;-83
2021/09/26 00:22:21;;;;;;;15.30;9.35;;;18.20;76.40;;;;;;5015397;28;20568;-83
2021/09/26 00:24:48;;;;;;;10.23;8.25;;;18.10;76.50;;;;;;5016098;28;20046;-83
2021/09/26 00:27:15;;;;;;;13.10;9.50;;;18.10;76.50;;;;;;5015836;28;20062;-83
2021/09/26 00:29:42;;;;;;;9.38;8.07;;;18.20;76.50;;;;;;5016027;28;20111;-83
2021/09/26 00:32:09;;;;;;;14.77;9.85;;;18.20;76.50;;;;;;5013241;28;20057;-83
2021/09/26 00:34:36;;;;;;;11.07;9.10;;;18.10;76.50;;;;;;5010748;28;20104;-83
2021/09/26 00:37:04;;;;;;;15.48;8.48;;;18.10;76.60;;;;;;5013177;28;20054;-83
2021/09/26 00:39:31;;;;;;;13.35;8.18;;;18.10;76.60;;;;;;5016016;28;20045;-83
2021/09/26 00:41:58;;;;;;;12.15;8.10;;;18.10;76.60;;;;;;5016139;28;20045;-83
2021/09/26 00:44:25;;;;;;;10.10;7.82;;;18.10;76.60;;;;;;5013714;28;20096;-83
2021/09/26 00:46:52;;;;;;;13.30;9.43;;;18.10;76.60;;;;;;5013704;28;20053;-83
2021/09/26 00:49:20;;;;;;;19.20;9.77;;;18.10;76.60;;;;;;5014850;28;20054;-83
2021/09/26 00:51:49;;;;;;;13.40;8.65;;;18.10;76.60;;;;;;5016052;28;20112;-83
2021/09/26 00:54:17;;;;;;;11.32;8.40;;;18.10;76.70;;;;;;5015992;28;20053;-83
2021/09/26 00:56:47;;;;;;;13.68;8.73;;;18.00;76.60;;;;;;5016004;28;20561;-83
2021/09/26 00:59:19;;;;;;;14.60;8.65;;;18.10;76.70;;;;;;5012189;28;20091;-83
2021/09/26 01:01:48;;;;;;;10.27;7.45;;;18.00;76.70;;;;;;5016742;28;20049;-83
2021/09/26 01:04:16;;;;;;;12.23;8.30;;;18.00;76.70;;;;;;5016092;28;20050;-83
2021/09/26 01:07:00;;;;;;;11.93;9.27;;;18.10;76.70;;;;;;5016545;28;20077;-83
2021/09/26 01:09:59;;;;;;;11.80;9.43;;;18.00;76.70;;;;;;5016579;28;20100;-83
2021/09/26 01:12:40;;;;;;;18.20;10.02;;;18.00;76.70;;;;;;5016466;28;20478;-83
2021/09/26 01:15:11;;;;;;;10.85;9.10;;;18.00;76.80;;;;;;5016464;28;20058;-83
2021/09/26 01:17:44;;;;;;;16.75;10.30;;;17.90;76.90;;;;;;5018306;28;20042;-83
2021/09/26 01:20:35;;;;;;;10.82;8.32;;;17.90;76.90;;;;;;5016496;28;20042;-83
2021/09/26 01:23:05;;;;;;;11.52;8.25;;;17.90;76.90;;;;;;5031466;28;20071;-83
2021/09/26 01:25:57;;;;;;;12.02;10.15;;;17.90;76.90;;;;;;5014462;28;20049;-83
2021/09/26 01:28:51;;;;;;;11.52;9.52;;;17.90;76.90;;;;;;5018129;28;20057;-83
2021/09/26 01:31:39;;;;;;;12.23;9.05;;;17.90;77.00;;;;;;5015715;28;20050;-83
2021/09/26 01:34:15;;;;;;;14.18;9.57;;;17.90;77.00;;;;;;5019234;28;20085;-83
2021/09/26 01:36:50;;;;;;;14.20;8.40;;;17.80;77.00;;;;;;5019175;28;20070;-83
2021/09/26 01:39:26;;;;;;;10.85;9.25;;;17.90;77.00;;;;;;5018832;28;20576;-84
2021/09/26 01:42:00;;;;;;;12.40;8.60;;;17.80;77.00;;;;;;5018843;28;20046;-83
2021/09/26 01:44:45;;;;;;;19.55;10.55;;;17.80;77.00;;;;;;5016735;28;20049;-83
2021/09/26 01:47:16;;;;;;;11.57;8.38;;;17.80;77.10;;;;;;5015643;28;20576;-83
2021/09/26 01:49:52;;;;;;;12.45;9.02;;;17.80;77.20;;;;;;5013484;28;20104;-83
2021/09/26 01:52:23;;;;;;;11.82;9.48;;;17.80;77.20;;;;;;5015612;28;20069;-83
2021/09/26 01:54:51;;;;;;;11.85;8.93;;;17.80;77.30;;;;;;5015782;28;20116;-83
2021/09/26 01:57:20;;;;;;;10.00;8.02;;;17.80;77.30;;;;;;5018642;28;20495;-83
2021/09/26 01:59:50;;;;;;;13.35;8.68;;;17.80;77.40;;;;;;5018687;28;20045;-83
2021/09/26 02:02:18;;;;;;;10.75;8.10;;;17.80;77.40;;;;;;5014853;28;20049;-83
2021/09/26 02:04:51;;;;;;;10.10;7.93;;;17.80;77.40;;;;;;5016684;28;20046;-83
2021/09/26 02:07:20;;;;;;;11.57;9.30;;;17.80;77.50;;;;;;5015356;28;20428;-83
2021/09/26 02:09:48;;;;;;;11.68;8.27;;;17.70;77.50;;;;;;5015491;28;20529;-84
2021/09/26 02:12:16;;;;;;;11.75;8.90;;;17.70;77.60;;;;;;5015228;28;20056;-83
2021/09/26 02:14:44;;;;;;;11.35;8.90;;;17.80;77.60;;;;;;5015231;28;20042;-83
2021/09/26 02:17:11;;;;;;;10.77;8.65;;;17.80;77.70;;;;;;5015457;28;20053;-83
2021/09/26 02:19:39;;;;;;;12.65;10.18;;;17.70;77.70;;;;;;5028758;28;20049;-83
2021/09/26 02:22:09;;;;;;;16.95;10.07;;;17.70;77.70;;;;;;5015510;28;20108;-83
2021/09/26 02:24:38;;;;;;;13.55;9.88;;;17.70;77.90;;;;;;5015274;28;20053;-84
2021/09/26 02:27:06;;;;;;;11.98;9.05;;;17.70;77.90;;;;;;5014914;28;20104;-83
2021/09/26 02:29:34;;;;;;;17.42;9.98;;;17.70;78.00;;;;;;5014856;28;20050;-83
2021/09/26 02:32:01;;;;;;;15.27;9.60;;;17.70;78.00;;;;;;5013722;28;20057;-83
2021/09/26 02:34:28;;;;;;;11.95;8.73;;;17.70;78.00;;;;;;5013965;28;20457;-83
2021/09/26 02:36:55;;;;;;;11.95;9.95;;;17.70;78.10;;;;;;5017777;28;20045;-83
2021/09/26 02:39:22;;;;;;;11.95;9.48;;;17.70;78.10;;;;;;5017867;28;20050;-83
2021/09/26 02:42:00;;;;;;;12.05;9.77;;;17.70;78.20;;;;;;5017850;28;20045;-83
2021/09/26 02:44:36;;;;;;;11.35;8.75;;;17.70;78.20;;;;;;5015363;28;20045;-83
2021/09/26 02:47:13;;;;;;;13.38;10.82;;;17.70;78.30;;;;;;5014100;28;20057;-83
2021/09/26 02:49:41;;;;;;;13.98;9.88;;;17.70;78.40;;;;;;5028403;28;20262;-84
2021/09/26 02:52:11;;;;;;;15.75;10.75;;;17.70;78.40;;;;;;5014983;28;20189;-83
2021/09/26 02:54:40;;;;;;;11.30;8.32;;;17.70;78.50;;;;;;5014697;28;20470;-83
2021/09/26 02:57:08;;;;;;;13.35;10.02;;;17.70;78.50;;;;;;5014580;28;20049;-83
2021/09/26 02:59:39;;;;;;;12.48;9.82;;;17.70;78.50;;;;;;5016186;28;20502;-84
2021/09/26 03:02:07;;;;;;;13.38;9.07;;;17.70;78.50;;;;;;5013397;28;20065;-83
2021/09/26 03:04:44;;;;;;;15.35;9.35;;;17.60;78.50;;;;;;5016587;28;20057;-83
2021/09/26 03:07:12;;;;;;;14.85;10.50;;;17.70;78.50;;;;;;5017289;28;20514;-83
2021/09/26 03:09:40;;;;;;;13.32;10.98;;;17.70;78.50;;;;;;5017570;28;20137;-83
2021/09/26 03:12:18;;;;;;;13.07;10.15;;;17.70;78.50;;;;;;4999955;28;20053;-83
2021/09/26 03:14:45;;;;;;;12.00;8.88;;;17.70;78.50;;;;;;5017403;28;20049;-84
2021/09/26 03:17:12;;;;;;;11.68;8.88;;;17.70;78.50;;;;;;5012939;28;20053;-83
2021/09/26 03:19:39;;;;;;;12.48;9.68;;;17.70;78.40;;;;;;5015988;28;20042;-83
2021/09/26 03:22:07;;;;;;;12.55;9.85;;;17.70;78.40;;;;;;5014300;28;20112;-83
2021/09/26 03:24:35;;;;;;;15.40;9.80;;;17.70;78.40;;;;;;5013467;28;20061;-84
2021/09/26 03:27:08;;;;;;;13.60;9.32;;;17.60;78.40;;;;;;5013801;28;20049;-83
2021/09/26 03:29:37;;;;;;;17.88;9.63;;;17.60;78.40;;;;;;5014158;28;20089;-83
2021/09/26 03:32:04;;;;;;;10.75;8.75;;;17.60;78.30;;;;;;5013141;28;20088;-83
2021/09/26 03:34:31;;;;;;;14.27;9.32;;;17.60;78.40;;;;;;5012406;28;20096;-83
2021/09/26 03:36:58;;;;;;;12.70;9.82;;;17.60;78.30;;;;;;5013877;28;20053;-83
2021/09/26 03:39:25;;;;;;;10.07;8.65;;;17.50;78.30;;;;;;5014036;28;20050;-83
2021/09/26 03:41:52;;;;;;;12.43;9.95;;;17.50;78.30;;;;;;5013418;28;20107;-84
2021/09/26 03:44:19;;;;;;;12.98;10.57;;;17.50;78.30;;;;;;5013924;28;20045;-83
2021/09/26 03:46:46;;;;;;;16.58;11.18;;;17.50;78.30;;;;;;5011798;28;20050;-84
2021/09/26 03:49:12;;;;;;;12.75;10.32;;;17.40;78.30;;;;;;5013409;28;20049;-83
2021/09/26 03:51:39;;;;;;;15.88;10.90;;;17.40;78.40;;;;;;5013704;28;20100;-83
2021/09/26 03:54:06;;;;;;;14.07;10.55;;;17.40;78.40;;;;;;5016462;28;20568;-83
2021/09/26 03:56:33;;;;;;;13.13;10.20;;;17.40;78.40;;;;;;5015068;28;20041;-84
2021/09/26 03:59:00;;;;;;;11.52;8.80;;;17.30;78.40;;;;;;4995934;28;20053;-84
2021/09/26 04:01:27;;;;;;;15.68;11.25;;;17.30;78.50;;;;;;5015667;28;20588;-83
2021/09/26 04:03:54;;;;;;;14.73;10.50;;;17.30;78.50;;;;;;5016398;28;20054;-84
2021/09/26 04:06:21;;;;;;;12.48;10.27;;;17.20;78.40;;;;;;4998823;28;20100;-83
2021/09/26 04:08:48;;;;;;;14.35;10.63;;;17.20;78.40;;;;;;5016520;28;20045;-83
2021/09/26 04:11:15;;;;;;;13.02;9.63;;;17.20;78.40;;;;;;5012473;28;20116;-83
2021/09/26 04:13:42;;;;;;;13.85;11.45;;;17.10;78.40;;;;;;5014802;28;20054;-83
2021/09/26 04:16:08;;;;;;;16.25;10.88;;;17.10;78.40;;;;;;5016303;28;20038;-83
2021/09/26 04:18:35;;;;;;;14.50;11.07;;;17.10;78.40;;;;;;5016143;28;20054;-83
2021/09/26 04:21:02;;;;;;;17.05;13.00;;;17.00;78.40;;;;;;5016149;28;20050;-83
2021/09/26 04:23:29;;;;;;;13.77;12.27;;;17.00;78.30;;;;;;5014720;28;20107;-84
2021/09/26 04:25:56;;;;;;;15.38;12.82;;;17.00;78.40;;;;;;5013208;28;20045;-83
2021/09/26 04:28:23;;;;;;;15.88;12.10;;;16.90;78.50;;;;;;5014995;28;20053;-83
2021/09/26 04:30:50;;;;;;;14.23;11.77;;;16.90;78.50;;;;;;5016177;28;20046;-83
2021/09/26 04:33:17;;;;;;;16.75;12.95;;;16.90;78.70;;;;;;5016608;28;20108;-84
2021/09/26 04:35:44;;;;;;;13.98;11.45;;;16.80;78.70;;;;;;5019483;28;20114;-84
2021/09/26 04:38:11;;;;;;;20.00;12.77;;;16.80;78.80;;;;;;5016041;28;20057;-83
2021/09/26 04:40:40;;;;;;;19.05;15.68;;;16.80;78.90;;;;;;5018821;28;20054;-84
2021/09/26 04:43:07;;;;;;;18.80;14.75;;;16.80;78.90;;;;;;5020044;28;20054;-84
2021/09/26 04:45:34;;;;;;;21.75;15.70;;;16.70;79.00;;;;;;5019989;28;20053;-83
2021/09/26 04:48:01;;;;;;;17.90;15.40;;;16.60;79.00;;;;;;5019918;28;20071;-84
2021/09/26 04:50:28;;;;;;;20.48;15.38;;;16.60;79.10;;;;;;5018157;28;20103;-84
2021/09/26 04:52:56;;;;;;;18.48;15.73;;;16.60;79.30;;;;;;5017197;28;20050;-84
2021/09/26 04:55:24;;;;;;;17.85;14.18;;;16.60;79.40;;;;;;5018692;28;20100;-84
2021/09/26 04:57:52;;;;;;;19.75;15.73;;;16.50;79.50;;;;;;5019813;28;20054;-84
2021/09/26 05:00:19;;;;;;;21.85;18.13;;;16.50;79.50;;;;;;5016717;28;20096;-84
2021/09/26 05:02:46;;;;;;;19.52;17.08;;;16.50;79.70;;;;;;5016899;28;20046;-84
2021/09/26 05:05:14;;;;;;;19.00;15.77;;;16.50;79.80;;;;;;5016814;28;20038;-84
2021/09/26 05:07:41;;;;;;;20.02;17.33;;;16.40;80.00;;;;;;5014246;28;20057;-84
2021/09/26 05:10:09;;;;;;;21.70;17.20;;;16.40;80.10;;;;;;5019256;28;20042;-84
2021/09/26 05:12:36;;;;;;;22.35;16.50;;;16.40;80.20;;;;;;5019778;28;20510;-84
2021/09/26 05:15:04;;;;;;;21.10;17.75;;;16.40;80.20;;;;;;5019513;28;20474;-84
2021/09/26 05:17:32;;;;;;;22.35;17.55;;;16.40;80.30;;;;;;5017990;28;20513;-83
2021/09/26 05:19:59;;;;;;;23.85;18.88;;;16.30;80.40;;;;;;5016226;28;20469;-84
2021/09/26 05:22:27;;;;;;;21.33;17.38;;;16.30;80.40;;;;;;5018567;28;20108;-84
2021/09/26 05:24:54;;;;;;;23.35;18.08;;;16.30;80.50;;;;;;5019020;28;20184;-84
2021/09/26 05:27:21;;;;;;;22.15;18.05;;;16.30;80.60;;;;;;5019158;28;20193;-84
2021/09/26 05:29:49;;;;;;;19.63;16.33;;;16.30;80.60;;;;;;5019133;28;20107;-84
2021/09/26 05:32:15;;;;;;;25.83;18.80;;;16.30;80.60;;;;;;5015668;28;20049;-84
2021/09/26 05:34:42;;;;;;;22.02;17.75;;;16.30;80.60;;;;;;5017426;28;20622;-84
2021/09/26 05:37:09;;;;;;;23.48;18.17;;;16.30;80.70;;;;;;5018993;28;20392;-84
2021/09/26 05:39:36;;;;;;;20.63;17.35;;;16.20;80.70;;;;;;5018623;28;20050;-84
2021/09/26 05:42:06;;;;;;;19.65;16.65;;;16.30;80.70;;;;;;5019082;28;20054;-84
2021/09/26 05:44:35;;;;;;;24.35;17.98;;;16.20;80.60;;;;;;5017676;28;20053;-84
2021/09/26 05:47:02;;;;;;;24.40;17.48;;;16.20;80.60;;;;;;5014783;28;20115;-84
2021/09/26 05:49:29;;;;;;;20.83;17.05;;;16.20;80.60;;;;;;5017918;28;20049;-83
2021/09/26 05:51:57;;;;;;;19.65;16.42;;;16.20;80.60;;;;;;5019174;28;20065;-84
2021/09/26 05:54:24;;;;;;;20.48;17.70;;;16.20;80.60;;;;;;5018317;28;20053;-84
2021/09/26 05:56:51;;;;;;;21.92;17.10;;;16.20;80.60;;;;;;5018825;28;20081;-84
2021/09/26 05:59:17;;;;;;;21.33;17.65;;;16.20;80.50;;;;;;5015359;28;20092;-84
2021/09/26 06:01:44;;;;;;;22.58;18.73;;;16.10;80.60;;;;;;5016601;28;20046;-84
2021/09/26 06:04:12;;;;;;;24.58;16.73;;;16.10;80.60;;;;;;5015391;28;20140;-85
2021/09/26 06:06:38;;;;;;;24.88;18.88;;;16.10;80.70;;;;;;5015158;28;20058;-84
2021/09/26 06:09:05;;;;;;;25.38;19.23;;;16.10;80.80;;;;;;5015499;28;20111;-84
2021/09/26 06:11:33;;;;;;;21.10;17.30;;;16.10;80.90;;;;;;5015648;28;20049;-84
2021/09/26 06:13:59;;;;;;;30.92;21.15;;;16.00;81.00;;;;;;5014135;28;20140;-84
2021/09/26 06:16:26;;;;;;;26.63;20.58;;;16.00;81.10;;;;;;5017619;28;20119;-85
2021/09/26 06:18:53;;;;;;;24.65;19.55;;;16.10;81.30;;;;;;5018056;28;20108;-84
2021/09/26 06:21:20;;;;;;;27.48;20.13;;;16.00;81.40;;;;;;5018132;28;20049;-84
2021/09/26 06:23:47;;;;;;;27.60;20.58;;;16.00;81.50;;;;;;5018361;28;20426;-84
2021/09/26 06:26:14;;;;;;;25.65;20.20;;;16.00;81.60;;;;;;5014397;28;20500;-84
2021/09/26 06:28:41;;;;;;;27.17;21.17;;;16.00;81.70;;;;;;5016186;28;20115;-84
2021/09/26 06:31:08;;;;;;;23.95;18.70;;;16.10;81.80;;;;;;5018063;28;20042;-84
2021/09/26 06:33:35;;;;;;;22.08;18.80;;;16.10;81.90;;;;;;5018058;28;20057;-84
2021/09/26 06:36:03;;;;;;;24.83;19.02;;;16.10;82.00;;;;;;5017630;28;20427;-84
2021/09/26 06:38:30;;;;;;;28.75;19.33;;;16.10;82.00;;;;;;5016338;28;20103;-84
2021/09/26 06:40:56;;;;;;;25.58;20.05;;;16.10;82.20;;;;;;5015163;28;20453;-84
2021/09/26 06:43:23;;;;;;;26.65;19.38;;;16.10;82.30;;;;;;5016986;28;20058;-84
2021/09/26 06:45:50;;;;;;;26.05;20.38;;;16.10;82.40;;;;;;5017890;28;20446;-84
2021/09/26 06:48:17;;;;;;;25.73;19.77;;;16.10;82.50;;;;;;5014487;28;20061;-84
2021/09/26 06:50:45;;;;;;;22.38;19.10;;;16.10;82.60;;;;;;5014407;28;20045;-84
2021/09/26 06:53:12;;;;;;;22.50;18.23;;;16.00;82.60;;;;;;5013623;28;20115;-84
2021/09/26 06:55:39;;;;;;;24.45;20.30;;;16.10;82.70;;;;;;5016437;28;20054;-84
2021/09/26 06:58:05;;;;;;;22.23;18.58;;;16.10;82.70;;;;;;5016724;28;20499;-85
2021/09/26 07:00:36;;;;;;;21.63;16.58;;;16.10;82.80;;;;;;5017474;28;20046;-84
2021/09/26 07:03:03;;;;;;;22.23;19.02;;;16.10;82.70;;;;;;5017497;28;20058;-84
2021/09/26 07:05:30;;;;;;;19.05;16.00;;;16.20;82.70;;;;;;5015581;28;20053;-84
2021/09/26 07:07:57;;;;;;;19.88;16.40;;;16.10;82.70;;;;;;5014793;28;20428;-84
2021/09/26 07:10:23;;;;;;;22.70;16.77;;;16.20;82.70;;;;;;5016470;28;20053;-85
2021/09/26 07:12:50;;;;;;;20.50;16.88;;;16.20;82.60;;;;;;5017329;28;20049;-85
2021/09/26 07:15:17;;;;;;;21.52;17.02;;;16.20;82.60;;;;;;5017329;28;20104;-84
2021/09/26 07:17:44;;;;;;;21.17;17.55;;;16.20;82.60;;;;;;5017146;28;20067;-85
2021/09/26 07:20:11;;;;;;;19.63;16.95;;;16.20;82.60;;;;;;5012742;28;20076;-87
2021/09/26 07:22:40;;;;;;;20.20;16.13;;;16.20;82.60;;;;;;5021398;28;20050;-87
2021/09/26 07:25:08;;;;;;;20.30;16.27;;;16.20;82.60;;;;;;5018793;28;20557;-87
2021/09/26 07:27:35;;;;;;;21.73;17.20;;;16.20;82.70;;;;;;5030032;28;20053;-86
2021/09/26 07:30:03;;;;;;;27.30;16.38;;;16.20;82.70;;;;;;5028857;28;20473;-86
2021/09/26 07:32:31;;;;;;;19.40;15.27;;;16.20;82.70;;;;;;5027984;28;20050;-87
2021/09/26 07:34:58;;;;;;;19.38;16.42;;;16.30;82.70;;;;;;5029796;28;20111;-86
2021/09/26 07:37:25;;;;;;;19.67;16.40;;;16.30;82.60;;;;;;5031133;28;20050;-86
2021/09/26 07:39:52;;;;;;;18.55;16.00;;;16.30;82.60;;;;;;5027700;28;20088;-87
2021/09/26 07:42:19;;;;;;;21.25;17.42;;;16.40;82.60;;;;;;5028124;28;20053;-86
2021/09/26 07:44:46;;;;;;;18.98;15.18;;;16.40;82.60;;;;;;5027883;28;20557;-86
2021/09/26 07:47:13;;;;;;;17.88;15.98;;;16.40;82.70;;;;;;5027797;28;20049;-86
2021/09/26 07:49:39;;;;;;;17.55;15.52;;;16.40;82.70;;;;;;5031942;28;20506;-86
2021/09/26 07:52:07;;;;;;;17.67;14.75;;;16.40;82.70;;;;;;5027625;28;20049;-86
2021/09/26 07:54:34;;;;;;;18.00;15.02;;;16.40;82.70;;;;;;5027377;28;20045;-85
2021/09/26 07:57:00;;;;;;;17.77;15.82;;;16.50;82.70;;;;;;5027619;28;20446;-86
2021/09/26 07:59:27;;;;;;;18.92;15.52;;;16.50;82.80;;;;;;5028040;28;20046;-87
2021/09/26 08:01:54;;;;;;;23.30;15.77;;;16.60;82.80;;;;;;5029795;28;20119;-86
2021/09/26 08:04:21;;;;;;;18.55;15.77;;;16.60;82.90;;;;;;5029802;28;20136;-86
2021/09/26 08:06:48;;;;;;;20.20;15.95;;;16.60;82.90;;;;;;5027916;28;20061;-85
2021/09/26 08:09:15;;;;;;;21.00;16.58;;;16.60;83.10;;;;;;5027020;28;20112;-85
2021/09/26 08:11:42;;;;;;;20.55;15.90;;;16.70;83.00;;;;;;5027705;28;20041;-85
2021/09/26 08:14:09;;;;;;;22.45;17.75;;;16.70;83.00;;;;;;5012435;28;20103;-85
2021/09/26 08:16:36;;;;;;;23.95;17.05;;;16.70;83.00;;;;;;5031290;28;20037;-86
2021/09/26 08:19:03;;;;;;;24.55;18.27;;;16.80;83.10;;;;;;5027148;28;20434;-85
2021/09/26 08:21:30;;;;;;;23.33;17.77;;;16.90;83.10;;;;;;5027555;28;20526;-86
2021/09/26 08:23:57;;;;;;;19.92;17.42;;;16.90;83.20;;;;;;5027002;28;20100;-85
2021/09/26 08:26:23;;;;;;;24.45;17.73;;;16.90;83.20;;;;;;5027711;28;20092;-86
2021/09/26 08:28:51;;;;;;;24.30;18.90;;;16.90;83.20;;;;;;5029934;28;20061;-83
2021/09/26 08:31:18;;;;;;;24.10;18.30;;;17.00;83.20;;;;;;5029252;28;20041;-86
2021/09/26 08:33:45;;;;;;;23.15;17.95;;;17.00;83.20;;;;;;5027179;28;20099;-85
2021/09/26 08:36:12;;;;;;;29.42;18.67;;;17.10;83.20;;;;;;5027389;28;20498;-85
2021/09/26 08:38:38;;;;;;;23.20;18.42;;;17.10;83.20;;;;;;5027416;28;20049;-85
2021/09/26 08:41:05;;;;;;;25.75;19.48;;;17.20;83.10;;;;;;5028702;28;20481;-83
2021/09/26 08:43:34;;;;;;;22.92;18.40;;;17.20;83.20;;;;;;5031208;28;20600;-84
2021/09/26 08:46:01;;;;;;;25.92;18.98;;;17.20;83.20;;;;;;5027397;28;20388;-83
2021/09/26 08:48:29;;;;;;;28.15;20.42;;;17.30;83.10;;;;;;5026821;28;20465;-83
2021/09/26 08:50:56;;;;;;;26.13;19.02;;;17.40;83.20;;;;;;5026996;28;20042;-83
2021/09/26 08:53:25;;;;;;;25.27;19.95;;;17.40;83.30;;;;;;5027382;28;20054;-84
2021/09/26 08:55:53;;;;;;;27.65;21.25;;;17.40;83.30;;;;;;5029835;28;20045;-84
2021/09/26 08:58:20;;;;;;;26.33;20.63;;;17.40;83.20;;;;;;5029002;28;20450;-83
2021/09/26 09:00:48;;;;;;;26.75;20.15;;;17.50;83.10;;;;;;5026732;28;20115;-84
2021/09/26 09:03:16;;;;;;;28.25;21.15;;;17.60;83.10;;;;;;5027366;28;20132;-83
2021/09/26 09:05:43;;;;;;;23.67;19.33;;;17.70;83.10;;;;;;5027856;28;20509;-84
2021/09/26 09:08:15;;;;;;;23.20;18.80;;;17.70;83.10;;;;;;5011722;28;20049;-85
2021/09/26 09:10:45;;;;;;;25.95;19.48;;;17.80;83.10;;;;;;5027350;28;20046;-85
2021/09/26 09:13:16;;;;;;;26.83;21.02;;;17.90;83.10;;;;;;5028883;28;20583;-84
2021/09/26 09:15:52;;;;;;;28.75;19.17;;;17.90;83.10;;;;;;5026278;28;20411;-83
2021/09/26 09:18:20;;;;;;;28.20;20.63;;;18.00;83.20;;;;;;5027129;28;20053;-83
2021/09/26 09:20:47;;;;;;;25.50;19.77;;;18.10;83.10;;;;;;5027369;28;20465;-84
2021/09/26 09:23:21;;;;;;;25.98;19.95;;;18.20;83.00;;;;;;5030730;28;20099;-83
2021/09/26 09:25:53;;;;;;;24.15;19.08;;;18.30;82.80;;;;;;5033441;28;20517;-85
2021/09/26 09:28:26;;;;;;;21.70;17.92;;;18.40;82.50;;;;;;5032393;28;20115;-83
2021/09/26 09:31:02;;;;;;;22.63;18.23;;;18.40;82.20;;;;;;5030048;28;20088;-83
2021/09/26 09:33:41;;;;;;;23.30;18.08;;;18.40;82.10;;;;;;5031075;28;20053;-84
2021/09/26 09:36:20;;;;;;;18.88;16.83;;;18.40;81.90;;;;;;5030465;28;20041;-84
2021/09/26 09:38:49;;;;;;;19.90;16.10;;;18.40;81.70;;;;;;5030196;28;20049;-84
2021/09/26 09:41:40;;;;;;;23.10;17.05;;;18.40;81.70;;;;;;5032488;28;20076;-85
2021/09/26 09:44:09;;;;;;;20.15;16.80;;;18.40;81.60;;;;;;5030354;28;20073;-83
2021/09/26 09:46:37;;;;;;;22.30;17.63;;;18.50;81.60;;;;;;5034207;28;20053;-85
2021/09/26 09:49:22;;;;;;;19.67;15.77;;;18.50;81.50;;;;;;5030043;28;20045;-84
2021/09/26 09:51:51;;;;;;;21.00;16.67;;;18.50;81.40;;;;;;5030067;28;20593;-81
2021/09/26 09:54:28;;;;;;;20.95;15.88;;;18.50;81.30;;;;;;5029830;28;20395;-86
2021/09/26 09:56:56;;;;;;;20.15;16.70;;;18.60;81.20;;;;;;5030069;28;20042;-82
2021/09/26 09:59:34;;;;;;;24.58;17.88;;;18.50;81.10;;;;;;5030088;28;20104;-83
2021/09/26 10:02:02;;;;;;;25.50;18.00;;;18.60;81.00;;;;;;5031562;28;20066;-84
2021/09/26 10:04:40;;;;;;;18.50;15.73;;;18.60;81.00;;;;;;5016926;28;20073;-84
2021/09/26 10:07:28;;;;;;;20.08;15.10;;;18.60;80.90;;;;;;5029265;28;20383;-83
2021/09/26 10:09:56;;;;;;;17.15;13.88;;;18.70;80.90;;;;;;5029467;28;20057;-84
2021/09/26 10:12:26;;;;;;;20.05;14.15;;;18.80;80.90;;;;;;5029891;28;20103;-83
2021/09/26 10:14:58;;;;;;;20.08;13.52;;;18.90;81.00;;;;;;5029338;28;20076;-83
2021/09/26 10:17:26;;;;;;;17.33;13.25;;;19.00;81.00;;;;;;5031308;28;20050;-87
2021/09/26 10:19:54;;;;;;;18.05;13.45;;;19.10;80.80;;;;;;5032054;28;20053;-84
2021/09/26 10:22:21;;;;;;;15.90;12.38;;;19.20;80.60;;;;;;5031543;28;20172;-83
2021/09/26 10:24:51;;;;;;;15.57;11.40;;;19.20;80.50;;;;;;5029509;28;20049;-84
2021/09/26 10:27:22;;;;;;;12.75;10.32;;;19.30;80.00;;;;;;5029405;28;20053;-84
2021/09/26 10:30:04;;;;;;;13.15;10.13;;;19.40;79.80;;;;;;5028814;28;20041;-82
2021/09/26 10:32:32;;;;;;;12.90;10.45;;;19.40;79.70;;;;;;5029769;28;20053;-83
2021/09/26 10:34:59;;;;;;;14.35;10.73;;;19.50;79.50;;;;;;5030955;28;20468;-82
2021/09/26 10:37:27;;;;;;;16.00;10.40;;;19.50;79.00;;;;;;5031711;28;20078;-82
2021/09/26 10:39:54;;;;;;;15.60;11.98;;;19.60;78.90;;;;;;5013101;28;20190;-80
2021/09/26 10:42:24;;;;;;;15.35;12.02;;;19.50;78.80;;;;;;5030541;28;20049;-81
2021/09/26 10:45:00;;;;;;;15.82;11.85;;;19.50;78.70;;;;;;5028975;28;20069;-81
2021/09/26 10:47:32;;;;;;;16.08;12.57;;;19.50;78.70;;;;;;5029202;28;20041;-82
2021/09/26 10:50:11;;;;;;;16.30;11.77;;;19.50;78.70;;;;;;5030705;28;20045;-82
2021/09/26 10:52:39;;;;;;;16.60;11.32;;;19.40;78.60;;;;;;5029140;28;20045;-84
2021/09/26 10:55:15;;;;;;;17.98;11.40;;;19.40;78.50;;;;;;5029729;28;20057;-83
2021/09/26 10:57:44;;;;;;;15.50;11.73;;;19.40;78.50;;;;;;5028972;28;20461;-83
2021/09/26 11:00:27;;;;;;;16.15;11.13;;;19.40;78.50;;;;;;5029586;28;20122;-83
2021/09/26 11:02:55;;;;;;;14.10;11.40;;;19.30;78.60;;;;;;5028531;28;20042;-85
2021/09/26 11:05:32;;;;;;;15.73;10.80;;;19.30;78.60;;;;;;5030743;28;20050;-85
2021/09/26 11:08:00;;;;;;;15.80;10.57;;;19.30;78.60;;;;;;5029977;28;20045;-84
2021/09/26 11:10:40;;;;;;;16.85;11.48;;;19.30;78.60;;;;;;5031705;28;20104;-83
2021/09/26 11:13:21;;;;;;;15.68;11.13;;;19.30;78.60;;;;;;5030658;28;20049;-85
2021/09/26 11:16:12;;;;;;;14.05;10.35;;;19.30;78.60;;;;;;5028180;28;20045;-83
2021/09/26 11:18:52;;;;;;;18.58;10.07;;;19.30;78.70;;;;;;5025013;28;20052;-82
2021/09/26 11:21:37;;;;;;;16.38;10.57;;;19.20;78.70;;;;;;5029826;28;20465;-84
2021/09/26 11:24:14;;;;;;;17.67;10.45;;;19.20;78.70;;;;;;5028517;28;20069;-83
2021/09/26 11:27:01;;;;;;;15.27;9.27;;;19.20;78.80;;;;;;5028363;28;20045;-81
2021/09/26 11:29:38;;;;;;;13.48;8.90;;;19.30;78.70;;;;;;5014524;28;20097;-83
2021/09/26 11:32:10;;;;;;;12.82;8.27;;;19.30;78.70;;;;;;5029101;28;20457;-81
2021/09/26 11:34:47;;;;;;;13.25;8.27;;;19.30;78.50;;;;;;5028260;28;20465;-82
2021/09/26 11:37:15;;;;;;;10.02;8.23;;;19.30;78.50;;;;;;5030913;28;20064;-82
2021/09/26 11:39:51;;;;;;;10.15;7.72;;;19.40;78.50;;;;;;5028037;28;20099;-82
2021/09/26 11:42:32;;;;;;;12.05;7.78;;;19.40;78.50;;;;;;5027817;28;20077;-82
2021/09/26 11:45:02;;;;;;;12.07;8.95;;;19.40;78.40;;;;;;5028759;28;20457;-82
2021/09/26 11:47:29;;;;;;;12.48;7.47;;;19.50;78.50;;;;;;5028227;28;20514;-82
2021/09/26 11:50:11;;;;;;;11.38;7.90;;;19.50;78.40;;;;;;5030348;28;20587;-81
2021/09/26 11:52:43;;;;;;;13.05;7.63;;;19.60;78.20;;;;;;5027870;28;20460;-83
2021/09/26 11:55:11;;;;;;;11.63;7.45;;;19.60;78.00;;;;;;5027611;28;20111;-81
2021/09/26 11:57:38;;;;;;;12.60;7.93;;;19.60;77.90;;;;;;5027893;28;20457;-82
2021/09/26 12:00:06;;;;;;;15.10;7.50;;;19.70;77.80;;;;;;5028882;28;20577;-81
2021/09/26 12:02:33;;;;;;;15.40;7.72;;;19.70;77.70;;;;;;5027957;28;20041;-81
2021/09/26 12:05:01;;;;;;;11.75;7.40;;;19.80;77.80;;;;;;5029598;28;20103;-82
2021/09/26 12:07:34;;;;;;;9.80;6.75;;;19.90;77.70;;;;;;5030542;28;20505;-82
2021/09/26 12:10:01;;;;;;;9.82;6.90;;;19.90;77.70;;;;;;5027250;28;20457;-81
2021/09/26 12:12:29;;;;;;;13.00;6.72;;;19.90;77.60;;;;;;5027644;28;20046;-81
2021/09/26 12:15:07;;;;;;;14.05;7.40;;;20.10;77.70;;;;;;5027534;28;20049;-81
2021/09/26 12:17:37;;;;;;;10.98;6.88;;;20.20;77.70;;;;;;5027547;28;20037;-81
2021/09/26 12:20:10;;;;;;;10.57;7.28;;;20.40;77.60;;;;;;5028614;28;20058;-80
2021/09/26 12:22:38;;;;;;;;;;;20.50;77.20;;;;;;5027853;28;20045;-80
2021/09/26 12:25:08;;;;;;;10.07;6.55;;;20.70;76.90;;;;;;5028582;28;19928;-81
2021/09/26 12:27:37;;;;;;;9.45;6.30;;;20.90;76.40;;;;;;5026916;28;20426;-80
2021/09/26 12:30:12;;;;;;;9.52;6.93;;;21.00;76.00;;;;;;5027742;28;20553;-81
2021/09/26 12:32:52;;;;;;;9.77;6.80;;;21.10;75.40;;;;;;5027747;28;20103;-80
2021/09/26 12:35:34;;;;;;;13.07;7.30;;;21.20;75.00;;;;;;5012926;28;20461;-80
2021/09/26 12:38:09;;;;;;;12.80;7.47;;;21.20;74.80;;;;;;5029085;28;20104;-80
2021/09/26 12:40:39;;;;;;;9.90;6.72;;;21.20;74.70;;;;;;5031310;28;20095;-80
2021/09/26 12:43:06;;;;;;;10.80;6.22;;;21.20;74.60;;;;;;5027118;28;20057;-80